Hovedside
METAR-TAF:

METAR-TAF

Lufthavner :

Bromma lufthavn

Stockholm, Sverige

breddegrad: 59-21N, lengdegrad: 017-57E, høyde over havet: 14 m

Gjeldene værobservasjon

Denne rapporten ble laget for 36 minutter siden, klokken 03:50 UTC
Vind 8 kt fra Øst-sørøst
Temperatur 3°C
Luftfuktighet 93%
Trykk 988 hPa
Sikt: 8000 m
duskregn

METAR: ESSB 290350Z AUTO 11008KT 8000 DZ OVC007/// 03/02 Q0988

Tid: 05:26 (04:26 UTC)

Varsel

Denne rapporten ble laget for 56 minutter siden, klokken 03:30 UTC
Varsel gyldig fra 29. klokken 04 UTC til 29. klokken 12 UTC
Vind 9 kt fra Sørøst
Sikt 10 km eller mer
Brutte skyer i en høyde av 700 ft
lett regn
Midlertidig
fra 29. klokken 04 UTC til 29. klokken 06 UTC
Sikt: 2000 m
Brutte skyer i en høyde av 400 ft
duskregn, regn, dis
Blir
fra 29. klokken 07 UTC til 29. klokken 09 UTC
Brutte skyer i en høyde av 1500 ft

TAF: ESSB 290330Z 2904/2912 14009KT 9999 -RA BKN007 TEMPO 2904/2906 2000 DZRA BR BKN004 BECMG 2907/2909 BKN015

Værobservasjoner og værvarsel for over 4000 flyplasser (METAR- og TAF-rapporter).

Tilgjengelige stasjoner er representert av de røde og gule prikkene på kartet.

Hold musepekeren over prikken for å se navnet på stasjonen.

Klikk så for å se værobservasjoner og -varsler.

For å forandre kartet kan du klikke på den grønne knappen med svart kryss for å zoome inn, på den grønne knappen med strek for å zoome ut, eller på de grønne pilene for å se tilstøtende kart.


METAR-TAF: